Time;durP1;ratioP1;P1;durP2;ratioP2;P2;SDS_P1;SDS_P2;PMS_P1;PMS_P2;Temp;Humidity;BMP_temperature;BMP_pressure;BME280_temperature;BME280_humidity;BME280_pressure;Samples;Min_cycle;Max_cycle;Signal;HPM_P1;HPM_P2
2021/03/03 00:00:51;;;;;;;13.45;7.25;;;6.50;70.60;;;;;;5003750;28;20054;-68
2021/03/03 00:03:17;;;;;;;11.77;6.82;;;6.50;70.30;;;;;;5003897;28;20054;-68
2021/03/03 00:05:44;;;;;;;13.25;6.60;;;6.40;70.60;;;;;;5005010;28;20151;-68
2021/03/03 00:08:10;;;;;;;10.80;6.30;;;6.40;70.30;;;;;;5004082;28;20063;-68
2021/03/03 00:10:36;;;;;;;17.25;7.53;;;6.40;70.30;;;;;;5005676;28;20125;-68
2021/03/03 00:13:03;;;;;;;11.30;6.95;;;6.30;70.30;;;;;;5006362;28;20045;-68
2021/03/03 00:15:30;;;;;;;14.75;7.60;;;6.30;70.30;;;;;;5003730;28;20099;-68
2021/03/03 00:17:56;;;;;;;13.25;7.90;;;6.30;70.20;;;;;;4999497;28;20074;-68
2021/03/03 00:20:22;;;;;;;14.48;7.53;;;6.30;70.40;;;;;;5004818;28;20050;-68
2021/03/03 00:22:48;;;;;;;13.05;6.88;;;6.30;71.00;;;;;;4999924;28;20125;-68
2021/03/03 00:25:15;;;;;;;15.32;7.93;;;6.20;70.20;;;;;;5004797;28;20060;-68
2021/03/03 00:27:41;;;;;;;13.95;7.75;;;6.20;70.30;;;;;;4999132;28;20050;-68
2021/03/03 00:30:17;;;;;;;13.95;7.15;;;6.20;70.20;;;;;;5000420;28;20126;-68
2021/03/03 00:32:44;;;;;;;12.40;6.72;;;6.20;70.90;;;;;;5006275;28;20529;-68
2021/03/03 00:35:11;;;;;;;13.38;6.82;;;6.20;70.20;;;;;;5004131;28;20060;-68
2021/03/03 00:37:38;;;;;;;13.25;7.10;;;6.20;70.20;;;;;;5005832;28;20477;-68
2021/03/03 00:40:06;;;;;;;14.10;6.95;;;6.10;70.20;;;;;;5007503;28;20083;-68
2021/03/03 00:42:32;;;;;;;12.43;6.55;;;6.10;70.30;;;;;;5004268;28;20054;-68
2021/03/03 00:44:58;;;;;;;12.93;7.07;;;6.10;70.40;;;;;;5006665;28;20080;-68
2021/03/03 00:47:24;;;;;;;12.40;6.38;;;6.10;70.30;;;;;;5003195;28;20450;-68
2021/03/03 00:49:51;;;;;;;12.35;6.93;;;6.00;70.20;;;;;;5003902;28;20046;-68
2021/03/03 00:52:17;;;;;;;10.98;6.63;;;6.00;70.40;;;;;;5004118;28;20046;-68
2021/03/03 00:54:44;;;;;;;14.20;6.70;;;5.90;70.30;;;;;;5006670;28;20060;-68
2021/03/03 00:57:10;;;;;;;10.45;6.65;;;5.90;70.40;;;;;;5006874;28;20453;-68
2021/03/03 00:59:36;;;;;;;11.45;6.57;;;5.90;70.50;;;;;;5000240;28;20095;-68
2021/03/03 01:02:03;;;;;;;12.80;6.47;;;5.90;70.40;;;;;;5006503;28;20491;-68
2021/03/03 01:04:29;;;;;;;11.27;6.03;;;5.80;70.20;;;;;;5003072;28;20447;-68
2021/03/03 01:06:55;;;;;;;11.85;6.03;;;5.70;70.40;;;;;;5004562;28;20390;-68
2021/03/03 01:09:22;;;;;;;12.02;6.05;;;5.70;70.60;;;;;;5002859;28;20050;-68
2021/03/03 01:11:49;;;;;;;11.48;6.00;;;5.70;70.70;;;;;;5004310;28;20150;-68
2021/03/03 01:14:16;;;;;;;12.60;6.63;;;5.60;70.60;;;;;;5003991;28;20045;-68
2021/03/03 01:16:49;;;;;;;11.68;5.97;;;5.60;70.70;;;;;;5006044;28;20125;-68
2021/03/03 01:19:17;;;;;;;15.68;6.10;;;5.60;70.40;;;;;;5002808;28;20050;-68
2021/03/03 01:21:43;;;;;;;12.98;6.00;;;5.50;70.20;;;;;;5109226;27;20129;-68
2021/03/03 01:24:10;;;;;;;11.63;6.00;;;5.50;70.20;;;;;;5006378;28;20526;-68
2021/03/03 01:26:37;;;;;;;10.07;6.20;;;5.50;70.20;;;;;;5005210;28;20053;-68
2021/03/03 01:29:03;;;;;;;12.07;5.97;;;5.50;70.20;;;;;;5004009;28;20041;-68
2021/03/03 01:31:29;;;;;;;12.77;6.43;;;5.50;70.90;;;;;;5003032;28;20499;-68
2021/03/03 01:33:56;;;;;;;10.48;6.10;;;5.50;70.30;;;;;;5005103;28;20050;-68
2021/03/03 01:36:22;;;;;;;12.07;5.75;;;5.50;70.20;;;;;;5002004;28;20038;-68
2021/03/03 01:38:48;;;;;;;12.48;5.38;;;5.40;70.00;;;;;;5002939;28;20041;-68
2021/03/03 01:41:15;;;;;;;13.65;6.45;;;5.40;70.00;;;;;;5003026;28;20053;-68
2021/03/03 01:43:41;;;;;;;11.23;5.72;;;5.40;70.00;;;;;;5001459;28;20503;-68
2021/03/03 01:46:07;;;;;;;9.73;4.93;;;5.40;70.20;;;;;;4999708;28;20042;-68
2021/03/03 01:48:34;;;;;;;9.13;5.00;;;5.40;70.10;;;;;;5004805;28;20111;-68
2021/03/03 01:51:00;;;;;;;9.35;4.75;;;5.30;69.90;;;;;;5000503;28;20129;-68
2021/03/03 01:53:29;;;;;;;8.38;4.45;;;5.30;70.00;;;;;;5005903;28;20129;-68
2021/03/03 01:55:55;;;;;;;9.18;4.55;;;5.30;70.20;;;;;;5112058;27;20510;-68
2021/03/03 01:58:22;;;;;;;8.18;4.13;;;5.20;70.10;;;;;;5001585;28;20505;-68
2021/03/03 02:00:49;;;;;;;10.38;5.05;;;5.20;70.20;;;;;;5001189;28;20050;-68
2021/03/03 02:03:17;;;;;;;10.48;5.43;;;5.10;70.10;;;;;;5002670;28;20112;-67
2021/03/03 02:05:44;;;;;;;9.05;4.78;;;5.10;70.20;;;;;;5001930;28;20052;-67
2021/03/03 02:08:14;;;;;;;10.98;5.13;;;5.00;70.30;;;;;;4995407;28;20073;-68
2021/03/03 02:10:49;;;;;;;14.85;6.15;;;4.90;70.20;;;;;;5002302;28;20050;-68
2021/03/03 02:13:38;;;;;;;11.50;6.15;;;4.90;70.10;;;;;;5107848;27;20093;-68
2021/03/03 02:16:06;;;;;;;12.13;6.50;;;4.80;70.20;;;;;;5002193;28;20047;-68
2021/03/03 02:18:35;;;;;;;9.70;5.73;;;4.80;70.40;;;;;;5005165;28;20045;-68
2021/03/03 02:21:33;;;;;;;11.63;5.90;;;4.80;70.30;;;;;;4999507;28;20339;-68
2021/03/03 02:24:09;;;;;;;12.63;6.10;;;4.80;70.20;;;;;;5005985;28;20532;-68
2021/03/03 02:26:37;;;;;;;13.40;6.22;;;4.80;70.20;;;;;;5003281;28;20054;-68
2021/03/03 02:29:07;;;;;;;13.75;6.60;;;4.80;70.10;;;;;;5004200;28;20052;-68
2021/03/03 02:31:39;;;;;;;13.55;6.55;;;4.80;70.10;;;;;;5001992;28;20046;-68
2021/03/03 02:34:07;;;;;;;12.55;6.18;;;4.80;70.20;;;;;;5007581;28;20037;-68
2021/03/03 02:36:35;;;;;;;11.90;6.35;;;4.70;70.10;;;;;;4999157;28;20054;-68
2021/03/03 02:39:04;;;;;;;13.10;6.57;;;4.70;70.20;;;;;;5003728;28;20049;-68
2021/03/03 02:41:33;;;;;;;10.25;5.53;;;4.70;70.20;;;;;;5002696;28;20046;-68
2021/03/03 02:44:01;;;;;;;12.30;6.50;;;4.70;70.40;;;;;;5007565;28;20223;-68
2021/03/03 02:46:28;;;;;;;12.03;5.57;;;4.70;70.20;;;;;;5006571;28;20125;-68
2021/03/03 02:48:55;;;;;;;10.98;6.25;;;4.70;70.40;;;;;;5007812;28;20489;-68
2021/03/03 02:51:22;;;;;;;9.88;5.55;;;4.70;70.30;;;;;;5007175;28;20050;-68
2021/03/03 02:53:48;;;;;;;9.45;6.22;;;4.60;70.30;;;;;;5007677;28;20419;-68
2021/03/03 02:56:14;;;;;;;11.75;5.65;;;4.60;70.20;;;;;;5104101;27;20061;-68
2021/03/03 02:58:41;;;;;;;11.10;5.35;;;4.60;70.30;;;;;;5000137;28;20133;-68
2021/03/03 03:01:08;;;;;;;10.25;5.57;;;4.60;70.20;;;;;;5002661;28;20054;-68
2021/03/03 03:03:50;;;;;;;9.93;5.80;;;4.60;70.40;;;;;;5003226;28;20473;-68
2021/03/03 03:06:23;;;;;;;11.05;5.32;;;4.50;70.40;;;;;;5001108;28;20054;-67
2021/03/03 03:08:53;;;;;;;11.85;5.80;;;4.40;70.40;;;;;;5006696;28;20044;-68
2021/03/03 03:11:24;;;;;;;9.70;5.18;;;4.40;70.10;;;;;;5005244;28;20053;-68
2021/03/03 03:13:53;;;;;;;10.40;6.15;;;4.40;70.30;;;;;;5005556;28;20469;-68
2021/03/03 03:16:21;;;;;;;11.25;5.75;;;4.40;70.40;;;;;;5006026;28;20428;-68
2021/03/03 03:18:53;;;;;;;12.43;5.55;;;4.40;70.40;;;;;;5004851;28;20058;-68
2021/03/03 03:21:21;;;;;;;9.00;4.82;;;4.30;70.40;;;;;;5006984;28;20095;-68
2021/03/03 03:23:48;;;;;;;11.57;5.10;;;4.30;70.50;;;;;;5005691;28;20046;-68
2021/03/03 03:26:15;;;;;;;11.45;5.55;;;4.20;70.40;;;;;;4999810;28;20532;-68
2021/03/03 03:28:42;;;;;;;12.15;5.68;;;4.20;70.30;;;;;;5002398;28;20076;-67
2021/03/03 03:31:10;;;;;;;11.80;5.13;;;4.20;70.30;;;;;;5004331;28;20153;-68
2021/03/03 03:33:37;;;;;;;10.98;5.07;;;4.20;70.40;;;;;;5007081;28;20069;-68
2021/03/03 03:36:05;;;;;;;9.13;5.00;;;4.20;70.40;;;;;;5003170;28;20047;-67
2021/03/03 03:38:33;;;;;;;12.32;5.47;;;4.20;70.60;;;;;;5010272;28;20060;-67
2021/03/03 03:41:01;;;;;;;10.88;5.43;;;4.10;70.40;;;;;;5006613;28;20050;-68
2021/03/03 03:43:30;;;;;;;11.25;5.43;;;4.10;70.40;;;;;;5006225;28;20129;-67
2021/03/03 03:45:57;;;;;;;10.27;5.63;;;4.10;70.50;;;;;;5005350;28;20045;-67
2021/03/03 03:48:24;;;;;;;10.63;5.35;;;4.10;70.60;;;;;;5006270;28;20038;-67
2021/03/03 03:50:51;;;;;;;12.07;5.15;;;4.10;70.40;;;;;;5008230;28;20081;-67
2021/03/03 03:53:18;;;;;;;14.00;5.15;;;4.10;70.50;;;;;;5107015;27;20055;-67
2021/03/03 03:55:44;;;;;;;11.27;5.28;;;4.10;70.40;;;;;;5006708;28;20050;-68
2021/03/03 03:58:10;;;;;;;9.13;5.30;;;4.10;70.50;;;;;;5002447;28;20485;-68
2021/03/03 04:00:37;;;;;;;10.68;4.88;;;4.00;70.80;;;;;;5001874;28;20115;-68
2021/03/03 04:03:04;;;;;;;8.93;4.70;;;4.10;71.60;;;;;;5004887;28;20126;-68
2021/03/03 04:05:30;;;;;;;11.07;5.47;;;4.00;70.70;;;;;;5005088;28;20049;-68
2021/03/03 04:07:57;;;;;;;11.55;5.45;;;4.00;70.50;;;;;;5005453;28;20038;-67
2021/03/03 04:10:28;;;;;;;9.82;5.10;;;4.00;70.60;;;;;;5100287;27;20141;-67
2021/03/03 04:12:55;;;;;;;12.13;5.35;;;4.00;70.50;;;;;;5006505;28;20078;-68
2021/03/03 04:15:22;;;;;;;12.40;6.00;;;4.00;70.50;;;;;;5005928;28;20077;-68
2021/03/03 04:17:49;;;;;;;9.55;4.95;;;3.90;70.50;;;;;;5004488;28;20144;-67
2021/03/03 04:20:18;;;;;;;9.85;4.60;;;3.90;70.70;;;;;;5003287;28;20449;-68
2021/03/03 04:22:44;;;;;;;9.40;4.47;;;3.80;70.60;;;;;;5104202;27;20091;-68
2021/03/03 04:25:15;;;;;;;12.30;5.20;;;3.80;70.70;;;;;;5004309;28;20137;-67
2021/03/03 04:27:42;;;;;;;10.05;4.90;;;3.80;70.90;;;;;;5002869;28;20473;-67
2021/03/03 04:30:12;;;;;;;8.40;4.68;;;3.70;71.10;;;;;;5000842;28;20038;-68
2021/03/03 04:32:38;;;;;;;9.15;4.68;;;3.70;71.00;;;;;;5004706;28;20463;-68
2021/03/03 04:35:06;;;;;;;8.48;4.45;;;3.70;71.20;;;;;;5003327;28;20073;-68
2021/03/03 04:37:32;;;;;;;10.55;5.00;;;3.70;71.40;;;;;;5004644;28;20058;-67
2021/03/03 04:39:59;;;;;;;10.82;5.43;;;3.70;71.10;;;;;;5007040;28;20055;-67
2021/03/03 04:42:25;;;;;;;10.82;6.32;;;3.70;71.10;;;;;;5006817;28;20547;-67
2021/03/03 04:44:51;;;;;;;9.50;4.78;;;3.70;71.10;;;;;;5001272;28;20138;-68
2021/03/03 04:47:17;;;;;;;10.13;5.00;;;3.80;71.30;;;;;;5004880;28;20100;-68
2021/03/03 04:49:44;;;;;;;11.43;4.82;;;3.80;71.40;;;;;;5000627;28;20053;-67
2021/03/03 04:52:10;;;;;;;8.82;4.72;;;3.80;71.50;;;;;;5004924;28;20058;-67
2021/03/03 04:54:36;;;;;;;9.55;4.95;;;3.80;71.60;;;;;;5004449;28;20478;-68
2021/03/03 04:57:04;;;;;;;10.68;4.65;;;3.70;71.60;;;;;;5004823;28;20046;-67
2021/03/03 04:59:31;;;;;;;8.75;4.88;;;3.80;71.60;;;;;;4997521;28;20497;-67
2021/03/03 05:01:58;;;;;;;11.52;4.88;;;3.70;71.50;;;;;;5004094;28;20049;-67
2021/03/03 05:04:31;;;;;;;10.55;4.75;;;3.70;71.50;;;;;;5002350;28;20654;-67
2021/03/03 05:06:57;;;;;;;8.82;4.40;;;3.70;71.30;;;;;;4999291;28;20131;-67
2021/03/03 05:09:24;;;;;;;11.90;5.00;;;3.70;71.50;;;;;;5002204;28;20043;-67
2021/03/03 05:12:09;;;;;;;9.50;5.20;;;3.70;71.30;;;;;;4999075;28;20389;-67
2021/03/03 05:14:36;;;;;;;9.93;4.90;;;3.70;71.40;;;;;;5000892;28;20169;-68
2021/03/03 05:17:51;;;;;;;10.75;5.45;;;3.70;71.40;;;;;;5003503;28;20054;-67
2021/03/03 05:20:18;;;;;;;9.33;4.37;;;3.70;71.50;;;;;;4993704;28;20064;-67
2021/03/03 05:22:44;;;;;;;9.48;4.53;;;3.70;71.50;;;;;;4999096;28;20058;-67
2021/03/03 05:25:11;;;;;;;10.57;5.30;;;3.60;71.60;;;;;;5003368;28;20133;-67
2021/03/03 05:27:37;;;;;;;8.18;4.07;;;3.60;71.60;;;;;;5005778;28;20046;-67
2021/03/03 05:30:06;;;;;;;8.77;5.22;;;3.60;71.60;;;;;;5004409;28;20069;-67
2021/03/03 05:32:32;;;;;;;8.60;4.80;;;3.60;71.50;;;;;;4999135;28;20052;-67
2021/03/03 05:34:58;;;;;;;11.18;5.20;;;3.60;71.80;;;;;;5007435;28;20072;-67
2021/03/03 05:37:25;;;;;;;9.05;5.07;;;3.60;71.70;;;;;;5004093;28;20458;-67
2021/03/03 05:39:51;;;;;;;10.73;4.47;;;3.70;71.90;;;;;;4991068;28;20056;-67
2021/03/03 05:42:17;;;;;;;9.55;5.10;;;3.60;71.90;;;;;;5002737;28;20056;-67
2021/03/03 05:44:46;;;;;;;12.38;5.25;;;3.60;71.70;;;;;;5002238;28;20136;-67
2021/03/03 05:47:14;;;;;;;9.93;4.82;;;3.60;71.60;;;;;;5004399;28;20041;-68
2021/03/03 05:49:43;;;;;;;11.65;5.05;;;3.70;72.00;;;;;;5002419;28;20042;-68
2021/03/03 05:52:12;;;;;;;11.23;5.30;;;3.70;71.90;;;;;;5007757;28;20046;-67
2021/03/03 05:54:46;;;;;;;10.80;5.47;;;3.60;71.80;;;;;;5002134;28;20451;-67
2021/03/03 05:57:16;;;;;;;9.55;5.18;;;3.60;71.90;;;;;;5096088;27;20133;-68
2021/03/03 06:00:35;;;;;;;10.63;5.03;;;3.60;72.00;;;;;;4999115;28;20103;-67
2021/03/03 06:03:03;;;;;;;7.65;4.53;;;3.60;72.10;;;;;;5003373;28;20680;-67
2021/03/03 06:05:31;;;;;;;8.35;4.55;;;3.60;72.10;;;;;;5004583;28;20119;-67
2021/03/03 06:07:59;;;;;;;8.13;4.38;;;3.60;72.30;;;;;;4997054;28;20054;-67
2021/03/03 06:10:31;;;;;;;8.35;4.22;;;3.60;72.50;;;;;;5003077;28;20050;-67
2021/03/03 06:12:57;;;;;;;7.88;4.40;;;3.50;72.30;;;;;;5000712;28;20501;-67
2021/03/03 06:15:24;;;;;;;8.30;4.47;;;3.50;72.10;;;;;;5003269;28;20050;-67
2021/03/03 06:17:51;;;;;;;11.30;5.13;;;3.50;72.40;;;;;;5006909;28;20165;-67
2021/03/03 06:20:18;;;;;;;11.05;4.97;;;3.50;72.40;;;;;;5006450;28;20549;-67
2021/03/03 06:22:44;;;;;;;9.23;4.43;;;3.60;72.60;;;;;;5005786;28;20046;-67
2021/03/03 06:25:22;;;;;;;10.07;5.07;;;3.60;72.60;;;;;;5011751;28;20401;-67
2021/03/03 06:27:49;;;;;;;10.45;4.50;;;3.60;72.60;;;;;;4998505;28;20577;-68
2021/03/03 06:30:17;;;;;;;11.07;5.35;;;3.60;72.60;;;;;;5103418;27;20409;-67
2021/03/03 06:32:58;;;;;;;12.32;5.03;;;3.60;72.70;;;;;;5009776;28;20141;-67
2021/03/03 06:35:46;;;;;;;9.40;4.70;;;3.60;72.80;;;;;;5108239;27;20096;-66
2021/03/03 06:38:14;;;;;;;8.07;4.43;;;3.60;72.90;;;;;;5014587;28;20049;-67
2021/03/03 06:40:58;;;;;;;9.88;4.60;;;3.60;73.10;;;;;;4997279;28;20141;-67
2021/03/03 06:43:30;;;;;;;9.15;4.88;;;3.60;73.00;;;;;;5007233;28;20416;-68
2021/03/03 06:46:15;;;;;;;10.68;5.28;;;3.60;73.00;;;;;;5005537;28;20074;-67
2021/03/03 06:48:44;;;;;;;9.35;4.55;;;3.70;73.20;;;;;;5006616;28;20038;-67
2021/03/03 06:51:27;;;;;;;9.32;4.70;;;3.70;73.60;;;;;;5007637;28;20145;-68
2021/03/03 06:53:58;;;;;;;9.02;4.28;;;3.70;73.40;;;;;;5011239;28;20438;-67
2021/03/03 06:56:36;;;;;;;8.75;4.85;;;3.80;73.80;;;;;;5007677;28;20567;-67
2021/03/03 06:59:22;;;;;;;8.77;4.65;;;3.80;73.80;;;;;;4998565;28;20053;-67
2021/03/03 07:01:50;;;;;;;9.35;4.53;;;3.90;73.70;;;;;;4994762;28;20054;-67
2021/03/03 07:04:31;;;;;;;9.57;5.13;;;3.90;73.80;;;;;;5002926;28;20088;-67
2021/03/03 07:06:59;;;;;;;9.95;5.32;;;4.00;73.90;;;;;;5015845;28;20145;-67
2021/03/03 07:09:35;;;;;;;8.57;5.10;;;4.00;73.90;;;;;;5007280;28;20050;-68
2021/03/03 07:12:04;;;;;;;9.93;4.82;;;4.10;74.20;;;;;;4998942;28;20145;-67
2021/03/03 07:14:31;;;;;;;8.38;4.90;;;4.20;74.60;;;;;;5008538;28;20046;-67
2021/03/03 07:17:08;;;;;;;12.45;5.07;;;4.20;74.60;;;;;;5007339;28;20133;-67
2021/03/03 07:19:40;;;;;;;11.43;5.50;;;4.30;74.80;;;;;;5001412;28;20038;-67
2021/03/03 07:22:26;;;;;;;9.95;5.30;;;4.30;74.90;;;;;;5001750;28;20305;-67
2021/03/03 07:25:00;;;;;;;10.27;5.53;;;4.40;75.20;;;;;;5001993;28;20436;-68
2021/03/03 07:27:27;;;;;;;10.40;5.30;;;4.40;75.40;;;;;;4999062;28;20155;-67
2021/03/03 07:30:17;;;;;;;10.70;5.28;;;4.50;75.70;;;;;;4998691;28;20042;-67
2021/03/03 07:32:44;;;;;;;9.13;5.40;;;4.50;75.80;;;;;;5009169;28;20050;-67
2021/03/03 07:35:28;;;;;;;10.85;5.25;;;4.60;76.10;;;;;;5000532;28;20050;-67
2021/03/03 07:37:56;;;;;;;10.15;5.18;;;4.60;76.50;;;;;;4997984;28;20072;-67
2021/03/03 07:40:27;;;;;;;9.25;4.57;;;4.70;76.60;;;;;;5000042;28;20080;-67
2021/03/03 07:42:56;;;;;;;11.85;6.35;;;4.70;76.50;;;;;;5005223;28;20061;-67
2021/03/03 07:45:28;;;;;;;8.95;5.22;;;4.80;76.80;;;;;;4996709;28;20073;-67
2021/03/03 07:47:56;;;;;;;14.48;6.28;;;4.90;77.00;;;;;;5000566;28;20050;-67
2021/03/03 07:50:23;;;;;;;10.30;5.63;;;4.90;77.20;;;;;;5001407;28;20041;-67
2021/03/03 07:52:58;;;;;;;11.05;5.30;;;5.00;77.50;;;;;;5004278;28;20923;-68
2021/03/03 07:55:25;;;;;;;9.85;5.50;;;5.10;77.70;;;;;;5007178;28;20038;-68
2021/03/03 07:57:53;;;;;;;10.57;5.20;;;5.20;77.80;;;;;;4998025;28;20064;-67
2021/03/03 08:00:24;;;;;;;8.43;5.28;;;5.30;78.30;;;;;;4999676;28;20046;-67
2021/03/03 08:02:56;;;;;;;10.25;5.47;;;5.40;78.60;;;;;;4991140;28;20091;-68
2021/03/03 08:05:28;;;;;;;10.82;5.50;;;5.50;78.80;;;;;;4998668;28;20058;-67
2021/03/03 08:08:10;;;;;;;10.50;5.53;;;5.60;78.90;;;;;;4994665;28;20061;-67
2021/03/03 08:10:41;;;;;;;9.27;5.20;;;5.70;79.10;;;;;;5092512;27;20046;-67
2021/03/03 08:13:13;;;;;;;11.65;6.03;;;5.80;79.70;;;;;;5006876;28;20095;-67
2021/03/03 08:15:45;;;;;;;12.65;6.78;;;5.90;79.80;;;;;;5002360;28;20042;-68
2021/03/03 08:18:14;;;;;;;12.10;5.65;;;6.00;80.10;;;;;;5003979;28;20382;-68
2021/03/03 08:20:43;;;;;;;11.27;6.00;;;6.10;80.30;;;;;;5005429;28;20054;-67
2021/03/03 08:23:35;;;;;;;14.57;7.07;;;6.30;80.70;;;;;;5003055;28;20054;-67
2021/03/03 08:26:06;;;;;;;10.43;5.72;;;6.40;80.80;;;;;;4999814;28;20162;-68
2021/03/03 08:28:39;;;;;;;13.95;6.60;;;6.50;80.80;;;;;;5001240;28;20477;-67
2021/03/03 08:31:09;;;;;;;14.60;6.85;;;6.60;81.00;;;;;;5005468;28;20053;-67
2021/03/03 08:33:37;;;;;;;13.02;6.18;;;6.60;80.90;;;;;;5002438;28;20038;-67
2021/03/03 08:36:21;;;;;;;15.30;6.82;;;6.70;81.00;;;;;;4998236;28;20075;-67
2021/03/03 08:38:53;;;;;;;12.82;6.78;;;6.80;81.10;;;;;;4994452;28;20397;-67
2021/03/03 08:41:26;;;;;;;13.05;7.07;;;6.80;81.10;;;;;;5097294;27;20061;-67
2021/03/03 08:44:02;;;;;;;14.30;6.53;;;6.80;81.10;;;;;;5002106;28;20103;-68
2021/03/03 08:46:28;;;;;;;12.85;6.95;;;6.90;81.30;;;;;;5094218;27;20507;-67
2021/03/03 08:48:55;;;;;;;12.85;6.50;;;6.90;82.00;;;;;;5094341;27;20053;-67
2021/03/03 08:51:30;;;;;;;13.25;7.18;;;7.00;82.10;;;;;;5000420;28;20046;-67
2021/03/03 08:54:20;;;;;;;12.43;6.95;;;7.00;82.10;;;;;;5100406;27;20069;-68
2021/03/03 08:56:52;;;;;;;16.15;7.22;;;7.10;82.40;;;;;;5002299;28;20567;-68
2021/03/03 08:59:41;;;;;;;13.30;7.45;;;7.20;82.80;;;;;;4999126;28;20046;-67
2021/03/03 09:02:18;;;;;;;13.38;6.75;;;7.30;83.00;;;;;;5003637;28;20060;-68
2021/03/03 09:04:53;;;;;;;13.00;7.38;;;7.30;83.00;;;;;;5101604;27;20054;-67
2021/03/03 09:07:21;;;;;;;15.38;7.18;;;7.40;83.40;;;;;;4999361;28;20100;-67
2021/03/03 09:09:56;;;;;;;14.88;7.32;;;7.40;83.10;;;;;;5004136;28;20055;-68
2021/03/03 09:12:23;;;;;;;15.55;8.27;;;7.50;83.30;;;;;;5097628;27;20061;-67
2021/03/03 09:14:54;;;;;;;14.43;7.60;;;7.50;83.30;;;;;;4997559;28;20129;-67
2021/03/03 09:17:27;;;;;;;13.40;7.18;;;7.60;83.60;;;;;;5002505;28;20094;-67
2021/03/03 09:19:59;;;;;;;13.85;7.45;;;7.60;84.20;;;;;;5002423;28;20044;-67
2021/03/03 09:22:28;;;;;;;15.05;7.50;;;7.60;84.20;;;;;;5000951;28;20046;-67
2021/03/03 09:24:56;;;;;;;14.70;7.85;;;7.60;84.60;;;;;;5001698;28;20062;-67
2021/03/03 09:27:23;;;;;;;14.02;8.00;;;7.60;84.40;;;;;;5001126;28;20046;-68
2021/03/03 09:29:50;;;;;;;15.57;7.85;;;7.70;85.10;;;;;;4998969;28;20514;-67
2021/03/03 09:32:22;;;;;;;16.00;8.38;;;7.70;85.20;;;;;;5000868;28;20497;-67
2021/03/03 09:35:00;;;;;;;16.70;8.23;;;7.80;85.80;;;;;;4998884;28;20111;-68
2021/03/03 09:37:44;;;;;;;15.63;8.18;;;7.90;85.70;;;;;;5000368;28;20068;-68
2021/03/03 09:40:13;;;;;;;17.60;8.88;;;8.10;85.80;;;;;;5007671;28;20058;-68
2021/03/03 09:42:47;;;;;;;17.20;9.07;;;8.20;86.40;;;;;;5001653;28;20049;-68
2021/03/03 09:45:18;;;;;;;16.15;8.57;;;8.30;86.80;;;;;;5002338;28;20061;-67
2021/03/03 09:47:46;;;;;;;16.48;8.27;;;8.40;87.20;;;;;;4999441;28;20745;-67
2021/03/03 09:50:18;;;;;;;16.20;9.05;;;8.50;87.20;;;;;;4997455;28;20046;-67
2021/03/03 09:52:50;;;;;;;17.42;8.63;;;8.60;87.70;;;;;;4996926;28;20038;-68
2021/03/03 09:55:18;;;;;;;20.13;9.70;;;8.70;88.50;;;;;;4999822;28;20054;-67
2021/03/03 09:57:55;;;;;;;18.88;9.90;;;8.90;88.60;;;;;;4998771;28;20384;-68
2021/03/03 10:00:27;;;;;;;16.13;8.95;;;9.10;89.00;;;;;;4997725;28;20045;-67
2021/03/03 10:02:57;;;;;;;18.45;9.45;;;9.30;89.40;;;;;;4998341;28;20057;-67
2021/03/03 10:05:27;;;;;;;22.90;10.70;;;9.40;89.70;;;;;;4996135;28;20050;-67
2021/03/03 10:07:56;;;;;;;19.85;11.13;;;9.50;90.00;;;;;;4999175;28;20053;-67
2021/03/03 10:10:24;;;;;;;;;;;9.70;90.50;;;;;;5001249;28;20046;-68
2021/03/03 10:12:51;;;;;;;17.67;9.35;;;9.80;90.80;;;;;;5001353;28;19929;-67
2021/03/03 10:15:40;;;;;;;21.27;11.48;;;9.80;90.90;;;;;;5002686;28;20080;-67
2021/03/03 10:18:08;;;;;;;21.08;12.60;;;9.90;90.80;;;;;;4998948;28;20054;-67
2021/03/03 10:20:36;;;;;;;22.70;12.40;;;9.90;90.90;;;;;;4998642;28;20065;-67
2021/03/03 10:23:09;;;;;;;20.83;12.35;;;10.10;90.80;;;;;;5003122;28;20046;-68
2021/03/03 10:25:36;;;;;;;25.02;12.88;;;10.20;91.10;;;;;;4999258;28;20058;-67
2021/03/03 10:28:13;;;;;;;21.05;11.55;;;10.30;91.20;;;;;;5094055;27;20457;-67
2021/03/03 10:30:51;;;;;;;21.42;12.50;;;10.40;91.40;;;;;;5000643;28;20500;-67
2021/03/03 10:33:26;;;;;;;21.70;12.25;;;10.50;91.50;;;;;;5001736;28;22854;-68
2021/03/03 10:35:55;;;;;;;22.92;13.05;;;10.80;92.00;;;;;;5003019;28;20452;-67
2021/03/03 10:38:22;;;;;;;22.48;12.82;;;11.00;92.40;;;;;;5000171;28;20420;-68
2021/03/03 10:40:50;;;;;;;23.73;14.30;;;11.20;92.80;;;;;;5005701;28;20051;-68
2021/03/03 10:43:22;;;;;;;24.40;13.93;;;11.40;93.00;;;;;;5000485;28;20060;-67
2021/03/03 10:46:08;;;;;;;25.25;14.30;;;11.60;93.40;;;;;;5002429;28;21062;-68
2021/03/03 10:48:36;;;;;;;24.58;14.18;;;11.80;93.70;;;;;;5094931;27;20052;-67
2021/03/03 10:51:04;;;;;;;24.55;14.52;;;12.00;93.90;;;;;;5001148;28;20492;-68
2021/03/03 10:53:57;;;;;;;26.95;15.88;;;12.20;94.10;;;;;;4998639;28;20046;-68
2021/03/03 10:56:27;;;;;;;26.60;15.23;;;12.30;94.20;;;;;;4999695;28;20042;-68
2021/03/03 10:58:58;;;;;;;27.85;16.10;;;12.50;94.40;;;;;;5002476;28;20667;-67
2021/03/03 11:01:46;;;;;;;28.67;14.93;;;12.60;94.60;;;;;;5000495;28;20605;-68
2021/03/03 11:04:14;;;;;;;24.60;14.55;;;12.80;94.70;;;;;;5003764;28;20050;-68
2021/03/03 11:06:41;;;;;;;25.13;14.98;;;12.90;94.90;;;;;;5001457;28;20060;-68
2021/03/03 11:09:11;;;;;;;24.88;14.63;;;13.10;95.10;;;;;;5000787;28;20045;-67
2021/03/03 11:11:55;;;;;;;26.20;15.15;;;13.20;95.40;;;;;;5002148;28;20407;-67
2021/03/03 11:14:23;;;;;;;25.08;15.48;;;13.40;95.60;;;;;;5000903;28;20130;-67
2021/03/03 11:16:53;;;;;;;23.42;14.23;;;13.50;95.50;;;;;;5000488;28;20065;-68
2021/03/03 11:19:19;;;;;;;27.83;14.95;;;13.40;95.10;;;;;;5002393;28;20435;-68
2021/03/03 11:21:47;;;;;;;22.77;14.73;;;13.20;94.70;;;;;;5000283;28;20077;-67
2021/03/03 11:24:13;;;;;;;28.60;15.98;;;13.10;94.40;;;;;;4999373;28;20420;-67
2021/03/03 11:26:41;;;;;;;27.75;15.13;;;12.90;94.00;;;;;;4999197;28;20042;-67
2021/03/03 11:29:08;;;;;;;22.60;14.10;;;12.70;93.70;;;;;;4998917;28;20054;-67
2021/03/03 11:31:35;;;;;;;22.73;14.23;;;12.60;93.60;;;;;;5005117;28;20050;-67
2021/03/03 11:34:02;;;;;;;23.35;14.00;;;12.70;93.60;;;;;;5001455;28;20053;-67
2021/03/03 11:36:30;;;;;;;22.30;14.18;;;12.80;93.50;;;;;;4997035;28;20065;-68
2021/03/03 11:38:57;;;;;;;25.30;14.75;;;12.80;93.40;;;;;;4997799;28;20693;-67
2021/03/03 11:41:24;;;;;;;24.55;14.40;;;12.80;93.30;;;;;;4999997;28;20437;-68
2021/03/03 11:43:51;;;;;;;24.92;14.93;;;12.80;93.10;;;;;;5001921;28;20060;-67
2021/03/03 11:46:18;;;;;;;24.00;14.05;;;12.80;93.10;;;;;;5005092;28;20073;-68
2021/03/03 11:48:45;;;;;;;25.02;15.07;;;12.70;92.90;;;;;;5000424;28;20065;-67
2021/03/03 11:51:11;;;;;;;26.90;14.88;;;12.70;92.80;;;;;;5000099;28;20057;-67
2021/03/03 11:53:38;;;;;;;24.80;14.05;;;12.60;93.00;;;;;;5005195;28;20085;-67
2021/03/03 11:56:04;;;;;;;27.40;14.77;;;12.70;92.80;;;;;;5001920;28;20049;-68
2021/03/03 11:58:31;;;;;;;25.85;14.98;;;12.80;92.90;;;;;;5001434;28;20056;-68
2021/03/03 12:01:03;;;;;;;30.48;16.25;;;12.90;93.00;;;;;;5004185;28;20102;-67
2021/03/03 12:03:30;;;;;;;26.73;15.70;;;13.00;93.10;;;;;;5006296;28;21982;-68
2021/03/03 12:05:57;;;;;;;25.92;15.95;;;13.30;93.40;;;;;;4999891;28;20634;-68
2021/03/03 12:08:24;;;;;;;28.25;16.75;;;13.50;93.70;;;;;;4991405;28;20045;-68
2021/03/03 12:10:50;;;;;;;25.90;15.45;;;13.90;94.20;;;;;;5004703;28;20122;-67
2021/03/03 12:13:16;;;;;;;29.52;17.15;;;14.20;94.60;;;;;;5009888;28;20050;-68
2021/03/03 12:15:42;;;;;;;28.77;16.77;;;14.60;95.00;;;;;;5003185;28;20049;-68
2021/03/03 12:18:10;;;;;;;28.45;17.60;;;14.90;95.30;;;;;;4999573;28;20060;-68
2021/03/03 12:20:37;;;;;;;31.48;19.27;;;15.10;95.70;;;;;;5001746;28;20082;-68
2021/03/03 12:23:03;;;;;;;31.65;18.48;;;15.40;96.10;;;;;;5004037;28;20049;-68
2021/03/03 12:25:30;;;;;;;35.25;19.55;;;15.50;96.00;;;;;;5002005;28;20050;-68
2021/03/03 12:27:57;;;;;;;34.53;20.27;;;15.60;96.20;;;;;;5002177;28;20089;-68
2021/03/03 12:30:24;;;;;;;34.60;19.67;;;15.70;96.00;;;;;;5005798;28;20046;-68
2021/03/03 12:32:50;;;;;;;30.83;19.60;;;15.70;95.90;;;;;;5004294;28;20123;-68
2021/03/03 12:35:17;;;;;;;33.00;20.00;;;15.70;95.70;;;;;;5004870;28;20050;-68
2021/03/03 12:37:44;;;;;;;32.17;20.75;;;15.70;95.70;;;;;;5003243;28;20077;-68
2021/03/03 12:40:11;;;;;;;33.22;20.85;;;15.70;95.40;;;;;;5006231;28;20481;-68
2021/03/03 12:42:37;;;;;;;36.80;22.42;;;15.70;95.10;;;;;;5005735;28;20048;-68
2021/03/03 12:45:04;;;;;;;32.60;21.33;;;15.70;95.10;;;;;;5004697;28;22227;-68
2021/03/03 12:47:31;;;;;;;36.40;21.55;;;15.70;95.20;;;;;;5000481;28;20128;-68
2021/03/03 12:49:57;;;;;;;35.63;21.63;;;15.60;94.90;;;;;;5097484;27;20069;-68
2021/03/03 12:52:24;;;;;;;34.90;21.30;;;15.60;94.80;;;;;;5003017;28;20111;-68
2021/03/03 12:54:51;;;;;;;32.47;20.60;;;15.60;94.90;;;;;;5004657;28;20064;-68
2021/03/03 12:57:17;;;;;;;33.95;20.42;;;15.60;94.90;;;;;;5004497;28;20068;-68
2021/03/03 12:59:43;;;;;;;34.60;20.92;;;15.60;94.60;;;;;;5003626;28;20125;-68